createdAt,value
2022-10-21T00:00:16.476Z,10.31
2022-10-21T00:01:16.507Z,10.31
2022-10-21T00:02:16.439Z,10.35
2022-10-21T00:03:16.378Z,10.28
2022-10-21T00:04:16.348Z,10.28
2022-10-21T00:05:16.399Z,10.28
2022-10-21T00:06:16.283Z,10.26
2022-10-21T00:07:16.312Z,10.23
2022-10-21T00:08:16.233Z,10.35
2022-10-21T00:09:16.209Z,10.31
2022-10-21T00:10:16.145Z,10.33
2022-10-21T00:11:16.111Z,10.31
2022-10-21T00:12:16.084Z,10.28
2022-10-21T00:13:16.109Z,10.28
2022-10-21T00:14:16.057Z,10.37
2022-10-21T00:15:15.991Z,10.31
2022-10-21T00:16:15.960Z,10.34
2022-10-21T00:17:15.911Z,10.37
2022-10-21T00:18:15.876Z,10.42
2022-10-21T00:19:15.910Z,10.44
2022-10-21T00:20:15.881Z,10.44
2022-10-21T00:21:15.842Z,10.44
2022-10-21T00:22:15.745Z,10.44
2022-10-21T00:23:15.716Z,10.44
2022-10-21T00:24:15.677Z,10.53
2022-10-21T00:25:15.682Z,10.53
2022-10-21T00:26:15.679Z,10.48
2022-10-21T00:27:15.596Z,10.49
2022-10-21T00:28:15.571Z,10.38
2022-10-21T00:29:15.581Z,10.49
2022-10-21T00:30:15.478Z,10.54
2022-10-21T00:31:15.459Z,10.48
2022-10-21T00:32:15.513Z,10.51
2022-10-21T00:33:15.375Z,10.61
2022-10-21T00:34:15.343Z,10.59
2022-10-21T00:35:15.317Z,10.57
2022-10-21T00:36:15.567Z,10.59
2022-10-21T00:37:15.328Z,10.56
2022-10-21T00:38:15.243Z,10.63
2022-10-21T00:39:15.192Z,10.57
2022-10-21T00:40:15.160Z,10.49
2022-10-21T00:41:15.121Z,10.60
2022-10-21T00:42:15.126Z,10.56
2022-10-21T00:43:15.119Z,10.59
2022-10-21T00:44:15.023Z,10.60
2022-10-21T00:45:14.976Z,10.60
2022-10-21T00:46:14.958Z,10.53
2022-10-21T00:47:14.937Z,10.57
2022-10-21T00:48:14.890Z,10.56
2022-10-21T00:49:14.908Z,10.60
2022-10-21T00:50:14.828Z,10.60
2022-10-21T00:51:14.786Z,10.57
2022-10-21T00:52:14.773Z,10.54
2022-10-21T00:53:14.774Z,10.57
2022-10-21T00:54:14.734Z,10.49
2022-10-21T00:55:14.644Z,10.54
2022-10-21T00:56:16.503Z,10.56
2022-10-21T00:57:14.583Z,10.54
2022-10-21T00:58:14.580Z,10.49
2022-10-21T00:59:14.598Z,10.48
2022-10-21T01:00:14.541Z,10.56
2022-10-21T01:01:17.903Z,10.51
2022-10-21T01:02:14.494Z,10.51
2022-10-21T01:03:14.387Z,10.54
2022-10-21T01:04:14.377Z,10.53
2022-10-21T01:05:14.314Z,10.56
2022-10-21T01:06:14.357Z,10.49
2022-10-21T01:07:14.258Z,10.48
2022-10-21T01:08:14.972Z,10.53
2022-10-21T01:09:14.234Z,10.42
2022-10-21T01:10:14.146Z,10.44
2022-10-21T01:11:14.115Z,10.48
2022-10-21T01:12:14.150Z,10.42
2022-10-21T01:13:14.052Z,10.49
2022-10-21T01:14:14.016Z,10.46
2022-10-21T01:15:14.005Z,10.53
2022-10-21T01:16:13.955Z,10.48
2022-10-21T01:17:26.274Z,10.49
2022-10-21T01:18:13.901Z,10.54
2022-10-21T01:19:13.933Z,10.53
2022-10-21T01:20:13.830Z,10.51
2022-10-21T01:21:13.799Z,10.51
2022-10-21T01:22:13.748Z,10.53
2022-10-21T01:23:13.730Z,10.49
2022-10-21T01:24:13.693Z,10.49
2022-10-21T01:25:13.824Z,10.48
2022-10-21T01:26:13.646Z,10.53
2022-10-21T01:27:13.603Z,10.56
2022-10-21T01:28:13.576Z,10.54
2022-10-21T01:29:13.522Z,10.59
2022-10-21T01:30:13.571Z,10.63
2022-10-21T01:31:13.477Z,10.54
2022-10-21T01:32:13.450Z,10.54
2022-10-21T01:33:13.403Z,10.61
2022-10-21T01:34:13.361Z,10.56
2022-10-21T01:35:13.464Z,10.61
2022-10-21T01:36:13.349Z,10.59
2022-10-21T01:37:13.943Z,10.57
2022-10-21T01:38:13.287Z,10.56
2022-10-21T01:39:13.190Z,10.57
2022-10-21T01:40:13.151Z,10.57
2022-10-21T01:41:13.176Z,10.53
2022-10-21T01:42:13.119Z,10.57
2022-10-21T01:43:13.061Z,10.51
2022-10-21T01:44:13.031Z,10.57
2022-10-21T01:45:13.060Z,10.63
2022-10-21T01:46:12.966Z,10.64
2022-10-21T01:47:12.928Z,10.46
2022-10-21T01:48:12.906Z,10.68
2022-10-21T01:49:12.861Z,10.59
2022-10-21T01:50:12.841Z,10.60
2022-10-21T01:51:12.950Z,10.57
2022-10-21T01:52:12.791Z,10.60
2022-10-21T01:53:12.752Z,10.56
2022-10-21T01:54:12.704Z,10.54
2022-10-21T01:55:12.659Z,10.64
2022-10-21T01:56:12.691Z,10.57
2022-10-21T01:57:12.609Z,10.63
2022-10-21T01:58:12.569Z,10.64
2022-10-21T01:59:12.560Z,10.67
2022-10-21T02:00:12.548Z,10.69
2022-10-21T02:01:12.603Z,10.53
2022-10-21T02:02:12.443Z,10.60
2022-10-21T02:03:12.418Z,10.60
2022-10-21T02:04:12.370Z,10.61
2022-10-21T02:05:12.328Z,10.69
2022-10-21T02:06:12.389Z,10.60
2022-10-21T02:07:12.348Z,10.63
2022-10-21T02:08:12.245Z,10.63
2022-10-21T02:09:12.355Z,10.61
2022-10-21T02:10:13.320Z,10.64
2022-10-21T02:11:12.249Z,10.60
2022-10-21T02:12:12.834Z,10.60
2022-10-21T02:13:12.971Z,10.59
2022-10-21T02:14:12.844Z,10.59
2022-10-21T02:15:12.822Z,10.59
2022-10-21T02:16:12.000Z,10.67
2022-10-21T02:17:11.942Z,10.59
2022-10-21T02:18:11.893Z,10.63
2022-10-21T02:19:12.461Z,10.68
2022-10-21T02:20:11.863Z,10.68
2022-10-21T02:21:11.806Z,10.68
2022-10-21T02:22:11.795Z,10.64
2022-10-21T02:23:11.732Z,10.63
2022-10-21T02:24:11.697Z,10.63
2022-10-21T02:25:11.800Z,10.68
2022-10-21T02:26:11.628Z,10.68
2022-10-21T02:27:11.633Z,10.67
2022-10-21T02:28:11.583Z,10.74
2022-10-21T02:29:11.532Z,10.68
2022-10-21T02:30:11.578Z,10.68
2022-10-21T02:31:11.481Z,10.72
2022-10-21T02:32:11.440Z,10.69
2022-10-21T02:33:11.472Z,10.75
2022-10-21T02:34:11.394Z,10.74
2022-10-21T02:35:11.333Z,10.69
2022-10-21T02:36:11.305Z,10.68
2022-10-21T02:37:11.274Z,10.68
2022-10-21T02:38:11.293Z,10.67
2022-10-21T02:39:11.200Z,10.69
2022-10-21T02:40:11.170Z,10.64
2022-10-21T02:41:11.144Z,10.67
2022-10-21T02:42:11.115Z,10.68
2022-10-21T02:43:11.150Z,10.68
2022-10-21T02:44:11.042Z,10.64
2022-10-21T02:45:11.009Z,10.64
2022-10-21T02:46:10.982Z,10.68
2022-10-21T02:48:10.907Z,10.75
2022-10-21T02:49:10.948Z,10.61
2022-10-21T02:50:10.837Z,10.59
2022-10-21T02:51:10.823Z,10.64
2022-10-21T02:52:10.775Z,10.64
2022-10-21T02:53:10.744Z,10.60
2022-10-21T02:54:10.776Z,10.63
2022-10-21T02:55:10.683Z,10.61
2022-10-21T02:56:10.640Z,10.61
2022-10-21T02:57:10.609Z,10.60
2022-10-21T02:58:10.576Z,10.68
2022-10-21T02:59:10.558Z,10.64
2022-10-21T03:00:10.570Z,10.64
2022-10-21T03:01:10.524Z,10.72
2022-10-21T03:02:10.439Z,10.61
2022-10-21T03:03:10.433Z,10.68
2022-10-21T03:04:10.372Z,10.63
2022-10-21T03:05:10.425Z,10.67
2022-10-21T03:06:10.333Z,10.68
2022-10-21T03:07:10.317Z,10.63
2022-10-21T03:08:10.244Z,10.64
2022-10-21T03:09:10.222Z,10.63
2022-10-21T03:10:10.173Z,10.68
2022-10-21T03:11:10.215Z,10.68
2022-10-21T03:12:10.123Z,10.61
2022-10-21T03:13:10.078Z,10.59
2022-10-21T03:14:10.044Z,10.60
2022-10-21T03:15:10.016Z,10.60
2022-10-21T03:16:10.018Z,10.61
2022-10-21T03:17:10.009Z,10.64
2022-10-21T03:18:09.921Z,10.67
2022-10-21T03:19:09.874Z,10.68
2022-10-21T03:20:09.879Z,10.68
2022-10-21T03:21:09.816Z,10.59
2022-10-21T03:22:09.776Z,10.61
2022-10-21T03:23:09.820Z,10.59
2022-10-21T03:24:15.431Z,10.59
2022-10-21T03:25:09.680Z,10.64
2022-10-21T03:26:11.341Z,10.64
2022-10-21T03:27:09.619Z,10.63
2022-10-21T03:28:09.584Z,10.61
2022-10-21T03:29:09.623Z,10.59
2022-10-21T03:30:09.537Z,10.61
2022-10-21T03:31:09.630Z,10.60
2022-10-21T03:32:09.522Z,10.63
2022-10-21T03:33:09.425Z,10.60
2022-10-21T03:34:09.389Z,10.61
2022-10-21T03:35:09.355Z,10.60
2022-10-21T03:36:09.332Z,10.64
2022-10-21T03:37:09.353Z,10.68
2022-10-21T03:38:09.265Z,10.67
2022-10-21T03:39:09.242Z,10.72
2022-10-21T03:40:12.259Z,10.71
2022-10-21T03:41:09.149Z,10.69
2022-10-21T03:42:09.562Z,10.68
2022-10-21T03:43:09.105Z,10.74
2022-10-21T03:44:09.069Z,10.64
2022-10-21T03:45:09.031Z,10.67
2022-10-21T03:46:08.986Z,10.76
2022-10-21T03:47:09.017Z,10.68
2022-10-21T03:48:08.934Z,10.64
2022-10-21T03:49:15.488Z,10.63
2022-10-21T03:50:12.127Z,10.68
2022-10-21T03:51:08.816Z,10.68
2022-10-21T03:52:08.803Z,10.61
2022-10-21T03:53:18.554Z,10.64
2022-10-21T03:54:08.735Z,10.74
2022-10-21T03:55:08.696Z,10.67
2022-10-21T03:56:08.659Z,10.64
2022-10-21T03:57:08.624Z,10.69
2022-10-21T03:58:08.653Z,10.69
2022-10-21T03:59:08.592Z,10.63
2022-10-21T04:00:08.642Z,10.56
2022-10-21T04:01:08.516Z,10.61
2022-10-21T04:02:08.535Z,10.57
2022-10-21T04:03:08.509Z,10.61
2022-10-21T04:04:08.402Z,10.63
2022-10-21T04:05:08.369Z,10.61
2022-10-21T04:06:08.346Z,10.68
2022-10-21T04:07:08.313Z,10.54
2022-10-21T04:08:08.321Z,10.59
2022-10-21T04:09:08.412Z,10.51
2022-10-21T04:10:08.241Z,10.54
2022-10-21T04:11:08.191Z,10.49
2022-10-21T04:12:08.128Z,10.48
2022-10-21T04:13:08.166Z,10.53
2022-10-21T04:14:11.529Z,10.56
2022-10-21T04:15:08.032Z,10.54
2022-10-21T04:16:08.000Z,10.40
2022-10-21T04:17:08.164Z,10.38
2022-10-21T04:18:07.950Z,10.40
2022-10-21T04:19:07.951Z,10.40
2022-10-21T04:20:07.866Z,10.42
2022-10-21T04:21:07.946Z,10.38
2022-10-21T04:22:07.878Z,10.40
2022-10-21T04:23:07.759Z,10.41
2022-10-21T04:24:07.725Z,10.42
2022-10-21T04:25:07.687Z,10.40
2022-10-21T04:26:07.661Z,10.44
2022-10-21T04:27:07.636Z,10.38
2022-10-21T04:28:07.645Z,10.48
2022-10-21T04:29:07.620Z,10.48
2022-10-21T04:30:07.565Z,10.37
2022-10-21T04:31:07.543Z,10.48
2022-10-21T04:32:07.538Z,10.38
2022-10-21T04:33:07.472Z,10.33
2022-10-21T04:34:07.645Z,10.33
2022-10-21T04:35:08.354Z,10.28
2022-10-21T04:36:07.372Z,10.30
2022-10-21T04:37:07.359Z,10.37
2022-10-21T04:38:07.271Z,10.31
2022-10-21T04:39:07.236Z,10.28
2022-10-21T04:40:07.250Z,10.30
2022-10-21T04:41:07.214Z,10.33
2022-10-21T04:42:07.219Z,10.31
2022-10-21T04:43:07.209Z,10.35
2022-10-21T04:44:07.175Z,10.37
2022-10-21T04:45:07.035Z,10.34
2022-10-21T04:46:08.834Z,10.35
2022-10-21T04:47:06.978Z,10.38
2022-10-21T04:48:07.032Z,10.46
2022-10-21T04:49:07.857Z,10.33
2022-10-21T04:50:06.890Z,10.35
2022-10-21T04:51:06.849Z,10.26
2022-10-21T04:52:06.794Z,10.26
2022-10-21T04:53:06.788Z,10.31
2022-10-21T04:54:06.813Z,10.30
2022-10-21T04:55:06.726Z,10.26
2022-10-21T04:56:06.685Z,10.28
2022-10-21T04:57:06.657Z,10.28
2022-10-21T04:58:06.632Z,10.30
2022-10-21T04:59:06.645Z,10.23
2022-10-21T05:00:06.587Z,10.19
2022-10-21T05:01:06.507Z,10.20
2022-10-21T05:02:06.463Z,10.16
2022-10-21T05:03:06.441Z,10.15
2022-10-21T05:04:06.396Z,10.17
2022-10-21T05:05:06.367Z,10.10
2022-10-21T05:06:06.389Z,10.02
2022-10-21T05:07:06.293Z,10.15
2022-10-21T05:08:11.403Z,10.09
2022-10-21T05:09:06.262Z,10.01
2022-10-21T05:10:06.203Z,10.10
2022-10-21T05:11:06.158Z,10.12
2022-10-21T05:12:06.183Z,10.09
2022-10-21T05:13:06.128Z,10.10
2022-10-21T05:14:06.063Z,10.16
2022-10-21T05:15:06.033Z,10.17
2022-10-21T05:16:05.994Z,10.16
2022-10-21T05:17:05.960Z,10.13
2022-10-21T05:18:05.986Z,10.17
2022-10-21T05:19:05.893Z,10.17
2022-10-21T05:20:05.866Z,10.17
2022-10-21T05:21:05.834Z,10.20
2022-10-21T05:22:05.793Z,10.26
2022-10-21T05:23:05.756Z,10.26
2022-10-21T05:24:05.796Z,10.26
2022-10-21T05:25:05.692Z,10.25
2022-10-21T05:26:05.661Z,10.26
2022-10-21T05:27:05.626Z,10.33
2022-10-21T05:28:05.625Z,10.28
2022-10-21T05:29:05.563Z,10.23
2022-10-21T05:30:05.573Z,10.31
2022-10-21T05:31:05.493Z,10.23
2022-10-21T05:32:05.509Z,10.37
2022-10-21T05:33:05.429Z,10.31
2022-10-21T05:34:05.397Z,10.37
2022-10-21T05:35:05.370Z,10.25
2022-10-21T05:36:05.376Z,10.26
2022-10-21T05:37:05.288Z,10.31
2022-10-21T05:38:05.262Z,10.31
2022-10-21T05:39:05.225Z,10.28
2022-10-21T05:40:05.191Z,10.35
2022-10-21T05:41:05.220Z,10.41
2022-10-21T05:42:05.127Z,10.34
2022-10-21T05:43:05.091Z,10.34
2022-10-21T05:44:05.076Z,10.41
2022-10-21T05:45:05.022Z,10.46
2022-10-21T05:46:05.056Z,10.48
2022-10-21T05:47:04.962Z,10.40
2022-10-21T05:48:04.933Z,10.48
2022-10-21T05:49:04.895Z,10.57
2022-10-21T05:50:04.916Z,10.60
2022-10-21T05:51:04.826Z,10.59
2022-10-21T05:52:04.871Z,10.56
2022-10-21T05:53:04.765Z,10.59
2022-10-21T05:54:04.730Z,10.57
2022-10-21T05:55:04.691Z,10.71
2022-10-21T05:56:04.754Z,10.67
2022-10-21T05:57:04.692Z,10.68
2022-10-21T05:58:04.603Z,10.64
2022-10-21T05:59:07.873Z,10.64
2022-10-21T06:00:04.525Z,10.74
2022-10-21T06:01:04.527Z,10.74
2022-10-21T06:02:04.468Z,10.71
2022-10-21T06:03:04.489Z,10.72
2022-10-21T06:04:04.397Z,10.76
2022-10-21T06:05:04.365Z,10.78
2022-10-21T06:06:04.988Z,10.74
2022-10-21T06:07:04.304Z,10.86
2022-10-21T06:08:04.259Z,10.86
2022-10-21T06:09:04.326Z,10.79
2022-10-21T06:10:04.246Z,10.90
2022-10-21T06:11:04.164Z,10.97
2022-10-21T06:12:04.131Z,10.96
2022-10-21T06:13:04.150Z,10.90
2022-10-21T06:14:04.066Z,10.96
2022-10-21T06:15:04.030Z,10.93
2022-10-21T06:17:03.968Z,11.04
2022-10-21T06:18:03.995Z,10.96
2022-10-21T06:19:03.911Z,10.94
2022-10-21T06:20:03.878Z,11.08
2022-10-21T06:21:03.833Z,11.07
2022-10-21T06:22:03.797Z,10.99
2022-10-21T06:23:03.816Z,11.08
2022-10-21T06:24:03.730Z,11.00
2022-10-21T06:25:03.738Z,11.07
2022-10-21T06:26:03.670Z,11.17
2022-10-21T06:27:03.633Z,11.14
2022-10-21T06:28:03.669Z,11.10
2022-10-21T06:29:03.571Z,11.10
2022-10-21T06:30:03.533Z,11.22
2022-10-21T06:31:03.498Z,11.15
2022-10-21T06:32:03.539Z,11.19
2022-10-21T06:33:03.463Z,11.18
2022-10-21T06:34:03.454Z,11.19
2022-10-21T06:35:03.393Z,11.25
2022-10-21T06:36:03.336Z,11.25
2022-10-21T06:37:03.354Z,11.25
2022-10-21T06:38:03.344Z,11.27
2022-10-21T06:39:03.243Z,11.27
2022-10-21T06:40:03.209Z,11.26
2022-10-21T06:41:03.287Z,11.30
2022-10-21T06:42:03.156Z,11.35
2022-10-21T06:43:03.119Z,11.30
2022-10-21T06:44:03.141Z,11.32
2022-10-21T06:45:03.096Z,11.40
2022-10-21T06:46:03.024Z,11.44
2022-10-21T06:47:02.976Z,11.44
2022-10-21T06:48:02.947Z,11.35
2022-10-21T06:49:02.918Z,11.41
2022-10-21T06:50:02.928Z,11.51
2022-10-21T06:51:02.865Z,11.48
2022-10-21T06:52:02.820Z,11.50
2022-10-21T06:53:02.853Z,11.48
2022-10-21T06:54:02.757Z,11.55
2022-10-21T06:55:02.715Z,11.60
2022-10-21T06:56:02.683Z,11.54
2022-10-21T06:57:02.650Z,11.54
2022-10-21T06:58:02.617Z,11.57
2022-10-21T06:59:02.647Z,11.55
2022-10-21T07:00:02.579Z,11.63
2022-10-21T07:01:02.554Z,11.66
2022-10-21T07:02:02.490Z,11.68
2022-10-21T07:03:02.476Z,11.66
2022-10-21T07:04:02.488Z,11.72
2022-10-21T07:05:02.383Z,11.73
2022-10-21T07:06:02.353Z,11.69
2022-10-21T07:07:02.439Z,11.73
2022-10-21T07:08:02.824Z,11.77
2022-10-21T07:09:02.314Z,11.78
2022-10-21T07:10:02.283Z,11.81
2022-10-21T07:11:02.889Z,11.75
2022-10-21T07:12:02.160Z,11.86
2022-10-21T07:13:02.216Z,11.99
2022-10-21T07:14:02.106Z,11.95
2022-10-21T07:15:02.119Z,11.88
2022-10-21T07:16:02.054Z,12.00
2022-10-21T07:17:02.004Z,11.99
2022-10-21T07:18:01.967Z,11.99
2022-10-21T07:19:01.956Z,12.13
2022-10-21T07:20:01.971Z,12.18
2022-10-21T07:21:01.867Z,12.15
2022-10-21T07:22:01.836Z,12.07
2022-10-21T07:23:01.819Z,12.09
2022-10-21T07:24:01.772Z,12.18
2022-10-21T07:26:01.766Z,12.31
2022-10-21T07:27:01.672Z,12.29
2022-10-21T07:28:01.645Z,12.29
2022-10-21T07:29:01.613Z,12.40
2022-10-21T07:30:01.581Z,12.46
2022-10-21T07:31:01.557Z,12.50
2022-10-21T07:32:01.578Z,12.45
2022-10-21T07:33:01.549Z,12.45
2022-10-21T07:34:01.540Z,12.64
2022-10-21T07:35:01.418Z,12.64
2022-10-21T07:36:01.394Z,12.57
2022-10-21T07:37:01.353Z,12.73
2022-10-21T07:38:01.372Z,12.68
2022-10-21T07:39:01.295Z,12.76
2022-10-21T07:40:01.309Z,12.76
2022-10-21T07:41:01.225Z,12.91
2022-10-21T07:42:01.195Z,12.91
2022-10-21T07:43:01.196Z,13.05
2022-10-21T07:44:01.905Z,13.04
2022-10-21T07:45:01.156Z,13.12
2022-10-21T07:46:03.195Z,13.30
2022-10-21T07:47:01.035Z,13.20
2022-10-21T07:48:01.040Z,13.35
2022-10-21T07:49:00.982Z,13.37
2022-10-21T07:50:01.029Z,13.41
2022-10-21T07:51:00.921Z,13.44
2022-10-21T07:52:00.968Z,13.47
2022-10-21T07:53:08.868Z,13.47
2022-10-21T07:54:01.510Z,13.50
2022-10-21T07:55:00.826Z,13.49
2022-10-21T07:56:00.757Z,13.50
2022-10-21T07:57:00.779Z,13.52
2022-10-21T07:58:00.717Z,13.57
2022-10-21T07:59:00.683Z,13.60
2022-10-21T08:00:00.632Z,13.60
2022-10-21T08:01:00.635Z,13.63
2022-10-21T08:02:00.567Z,13.72
2022-10-21T08:03:00.599Z,13.67
2022-10-21T08:04:00.499Z,13.71
2022-10-21T08:05:01.403Z,13.79
2022-10-21T08:06:00.446Z,13.67
2022-10-21T08:07:00.412Z,13.75
2022-10-21T08:08:00.394Z,13.74
2022-10-21T08:09:00.456Z,13.71
2022-10-21T08:10:00.312Z,13.75
2022-10-21T08:11:00.290Z,13.71
2022-10-21T08:12:00.290Z,13.65
2022-10-21T08:13:00.239Z,13.65
2022-10-21T08:14:00.194Z,13.70
2022-10-21T08:15:00.232Z,13.65
2022-10-21T08:16:00.137Z,13.75
2022-10-21T08:17:00.099Z,13.79
2022-10-21T08:18:00.067Z,13.86
2022-10-21T08:19:00.037Z,13.95
2022-10-21T08:20:00.117Z,14.03
2022-10-21T08:21:00.049Z,14.05
2022-10-21T08:21:59.948Z,14.08
2022-10-21T08:22:59.917Z,14.15
2022-10-21T08:23:59.918Z,14.26
2022-10-21T08:24:59.856Z,14.30
2022-10-21T08:25:59.868Z,14.28
2022-10-21T08:26:59.796Z,14.35
2022-10-21T08:27:59.759Z,14.30
2022-10-21T08:28:59.762Z,14.47
2022-10-21T08:29:59.709Z,14.47
2022-10-21T08:30:59.713Z,14.50
2022-10-21T08:31:59.649Z,14.69
2022-10-21T08:32:59.615Z,14.68
2022-10-21T08:33:59.573Z,14.82
2022-10-21T08:34:59.547Z,14.85
2022-10-21T08:35:59.574Z,14.92
2022-10-21T08:36:59.485Z,14.96
2022-10-21T08:37:59.486Z,14.91
2022-10-21T08:38:59.421Z,15.00
2022-10-21T08:39:59.421Z,15.09
2022-10-21T08:40:59.418Z,15.24
2022-10-21T08:41:59.353Z,15.36
2022-10-21T08:42:59.324Z,15.42
2022-10-21T08:43:59.271Z,15.61
2022-10-21T08:44:59.259Z,15.59
2022-10-21T08:45:59.258Z,15.46
2022-10-21T08:46:59.311Z,15.52
2022-10-21T08:47:59.176Z,15.58
2022-10-21T08:48:59.123Z,15.64
2022-10-21T08:49:59.140Z,15.79
2022-10-21T08:50:59.121Z,15.80
2022-10-21T08:51:59.038Z,15.83
2022-10-21T08:52:59.535Z,15.84
2022-10-21T08:53:58.974Z,15.92
2022-10-21T08:54:58.945Z,16.02
2022-10-21T08:55:58.965Z,16.09
2022-10-21T08:56:58.885Z,15.92
2022-10-21T08:57:58.867Z,16.04
2022-10-21T08:58:58.823Z,16.04
2022-10-21T08:59:58.804Z,16.05
2022-10-21T09:00:58.819Z,16.02
2022-10-21T09:01:58.733Z,16.15
2022-10-21T09:02:58.748Z,16.15
2022-10-21T09:03:58.731Z,16.16
2022-10-21T09:04:58.666Z,16.16
2022-10-21T09:06:10.057Z,16.17
2022-10-21T09:06:58.588Z,16.28
2022-10-21T09:07:58.554Z,16.33
2022-10-21T09:08:58.794Z,16.38
2022-10-21T09:09:58.493Z,16.43
2022-10-21T09:10:58.469Z,16.53
2022-10-21T09:11:58.436Z,16.56
2022-10-21T09:12:58.409Z,16.46
2022-10-21T09:13:58.377Z,16.60
2022-10-21T09:14:58.410Z,16.50
2022-10-21T09:15:58.319Z,16.49
2022-10-21T09:16:58.287Z,16.60
2022-10-21T09:17:58.265Z,16.51
2022-10-21T09:18:58.247Z,16.47
2022-10-21T09:19:58.202Z,16.60
2022-10-21T09:21:01.653Z,16.51
2022-10-21T09:22:05.834Z,16.57
2022-10-21T09:22:58.166Z,16.58
2022-10-21T09:23:58.093Z,16.57
2022-10-21T09:24:58.067Z,16.56
2022-10-21T09:25:58.038Z,16.64
2022-10-21T09:26:58.047Z,16.64
2022-10-21T09:27:58.286Z,16.71
2022-10-21T09:28:57.951Z,16.78
2022-10-21T09:29:57.931Z,16.76
2022-10-21T09:30:57.888Z,16.84
2022-10-21T09:32:02.241Z,16.78
2022-10-21T09:32:57.831Z,16.84
2022-10-21T09:33:57.793Z,16.94
2022-10-21T09:34:57.772Z,16.99
2022-10-21T09:35:57.745Z,17.08
2022-10-21T09:36:57.756Z,17.16
2022-10-21T09:37:57.727Z,17.09
2022-10-21T09:38:57.889Z,17.11
2022-10-21T09:39:57.621Z,17.15
2022-10-21T09:40:57.595Z,17.11
2022-10-21T09:41:59.372Z,17.12
2022-10-21T09:42:57.535Z,17.12
2022-10-21T09:43:57.504Z,17.31
2022-10-21T09:44:57.539Z,17.31
2022-10-21T09:45:57.446Z,17.49
2022-10-21T09:46:57.421Z,17.70
2022-10-21T09:47:57.396Z,17.80
2022-10-21T09:49:32.461Z,17.92
2022-10-21T09:50:12.760Z,17.92
2022-10-21T09:50:57.376Z,17.89
2022-10-21T09:51:57.297Z,17.86
2022-10-21T09:52:57.257Z,17.85
2022-10-21T09:53:57.224Z,17.87
2022-10-21T09:54:57.197Z,17.89
2022-10-21T09:55:57.236Z,17.87
2022-10-21T09:56:57.197Z,17.90
2022-10-21T09:58:07.513Z,17.98
2022-10-21T09:59:00.614Z,17.94
2022-10-21T09:59:57.644Z,18.05
2022-10-21T10:00:57.085Z,18.10
2022-10-21T10:01:57.077Z,18.08
2022-10-21T10:02:56.970Z,18.05
2022-10-21T10:03:56.943Z,18.10
2022-10-21T10:04:57.178Z,18.13
2022-10-21T10:05:56.889Z,18.16
2022-10-21T10:06:58.508Z,18.23
2022-10-21T10:07:56.837Z,18.29
2022-10-21T10:08:56.883Z,18.33
2022-10-21T10:09:56.827Z,18.40
2022-10-21T10:10:56.749Z,18.29
2022-10-21T10:11:56.750Z,18.19
2022-10-21T10:12:57.617Z,18.11
2022-10-21T10:13:56.671Z,18.04
2022-10-21T10:14:56.695Z,18.13
2022-10-21T10:15:56.621Z,18.04
2022-10-21T10:16:56.764Z,18.10
2022-10-21T10:17:56.551Z,18.05
2022-10-21T10:18:56.524Z,18.08
2022-10-21T10:19:56.553Z,18.04
2022-10-21T10:20:56.475Z,18.04
2022-10-21T10:21:56.479Z,18.03
2022-10-21T10:22:56.457Z,18.13
2022-10-21T10:23:56.444Z,18.08
2022-10-21T10:24:56.362Z,18.10
2022-10-21T10:25:56.360Z,18.10
2022-10-21T10:26:56.319Z,18.08
2022-10-21T10:27:56.395Z,18.10
2022-10-21T10:28:56.311Z,18.11
2022-10-21T10:29:56.278Z,18.15
2022-10-21T10:30:56.261Z,18.18
2022-10-21T10:31:56.177Z,18.18
2022-10-21T10:32:56.139Z,18.18
2022-10-21T10:33:58.851Z,18.15
2022-10-21T10:34:56.108Z,18.15
2022-10-21T10:35:56.130Z,18.11
2022-10-21T10:36:56.029Z,18.07
2022-10-21T10:37:56.014Z,17.98
2022-10-21T10:38:55.975Z,17.97
2022-10-21T10:39:56.018Z,17.97
2022-10-21T10:40:58.491Z,17.95
2022-10-21T10:41:56.025Z,17.98
2022-10-21T10:42:55.866Z,18.01
2022-10-21T10:43:55.837Z,17.89
2022-10-21T10:44:55.812Z,17.86
2022-10-21T10:45:55.844Z,17.90
2022-10-21T10:46:55.860Z,17.90
2022-10-21T10:47:55.724Z,17.95
2022-10-21T10:48:55.716Z,17.94
2022-10-21T10:49:55.668Z,17.89
2022-10-21T10:50:55.639Z,17.95
2022-10-21T10:51:55.655Z,17.90
2022-10-21T10:52:55.632Z,17.92
2022-10-21T10:53:55.554Z,17.97
2022-10-21T10:54:55.531Z,17.98
2022-10-21T10:55:55.570Z,18.00
2022-10-21T10:56:55.470Z,18.11
2022-10-21T10:58:06.437Z,18.13
2022-10-21T10:58:55.452Z,18.22
2022-10-21T10:59:55.391Z,18.23
2022-10-21T11:00:55.396Z,18.23
2022-10-21T11:01:55.328Z,18.35
2022-10-21T11:02:55.303Z,18.41
2022-10-21T11:03:55.335Z,18.37
2022-10-21T11:04:55.257Z,18.43
2022-10-21T11:05:55.221Z,18.40
2022-10-21T11:06:55.194Z,18.41
2022-10-21T11:07:55.172Z,18.43
2022-10-21T11:08:55.198Z,18.29
2022-10-21T11:09:55.182Z,18.33
2022-10-21T11:10:55.090Z,18.26
2022-10-21T11:11:55.217Z,18.11
2022-10-21T11:12:55.043Z,18.10
2022-10-21T11:13:55.025Z,17.98
2022-10-21T11:14:54.967Z,17.92
2022-10-21T11:15:54.996Z,17.85
2022-10-21T11:17:00.548Z,17.90
2022-10-21T11:17:54.892Z,17.83
2022-10-21T11:18:54.867Z,17.80
2022-10-21T11:19:54.832Z,17.80
2022-10-21T11:20:54.866Z,17.80
2022-10-21T11:21:54.841Z,17.79
2022-10-21T11:22:54.909Z,17.85
2022-10-21T11:23:57.699Z,17.89
2022-10-21T11:24:54.691Z,17.98
2022-10-21T11:25:54.668Z,17.98
2022-10-21T11:26:54.639Z,17.95
2022-10-21T11:27:54.690Z,17.94
2022-10-21T11:28:54.648Z,17.87
2022-10-21T11:29:54.560Z,17.87
2022-10-21T11:30:54.526Z,17.94
2022-10-21T11:32:10.619Z,17.94
2022-10-21T11:32:54.468Z,18.04
2022-10-21T11:33:54.470Z,17.97
2022-10-21T11:34:54.457Z,18.05
2022-10-21T11:35:57.726Z,18.04
2022-10-21T11:36:54.353Z,18.04
2022-10-21T11:37:54.327Z,18.08
2022-10-21T11:38:54.377Z,18.13
2022-10-21T11:39:54.267Z,18.22
2022-10-21T11:40:54.242Z,18.23
2022-10-21T11:41:54.220Z,18.23
2022-10-21T11:42:54.248Z,18.29
2022-10-21T11:43:54.242Z,18.35
2022-10-21T11:44:54.191Z,18.35
2022-10-21T11:45:54.104Z,18.38
2022-10-21T11:46:54.072Z,18.25
2022-10-21T11:47:55.044Z,18.35
2022-10-21T11:48:54.026Z,18.29
2022-10-21T11:49:53.993Z,18.29
2022-10-21T11:50:54.028Z,18.26
2022-10-21T11:51:53.935Z,18.43
2022-10-21T11:52:53.919Z,18.44
2022-10-21T11:53:54.030Z,18.31
2022-10-21T11:55:08.960Z,18.33
2022-10-21T11:55:53.823Z,18.18
2022-10-21T11:56:53.860Z,18.25
2022-10-21T11:57:53.788Z,18.29
2022-10-21T11:58:53.737Z,18.15
2022-10-21T11:59:56.542Z,18.10
2022-10-21T12:00:53.689Z,18.10
2022-10-21T12:01:53.700Z,18.07
2022-10-21T12:02:53.728Z,18.11
2022-10-21T12:03:53.875Z,18.04
2022-10-21T12:04:53.568Z,18.03
2022-10-21T12:05:53.543Z,18.03
2022-10-21T12:06:53.521Z,17.95
2022-10-21T12:07:53.484Z,17.95
2022-10-21T12:08:53.522Z,17.95
2022-10-21T12:09:53.434Z,17.92
2022-10-21T12:10:53.399Z,17.98
2022-10-21T12:11:53.374Z,17.92
2022-10-21T12:12:53.345Z,17.89
2022-10-21T12:13:53.316Z,17.82
2022-10-21T12:14:53.378Z,17.86
2022-10-21T12:15:53.327Z,17.85
2022-10-21T12:16:53.229Z,17.83
2022-10-21T12:17:53.203Z,17.82
2022-10-21T12:18:53.170Z,17.82
2022-10-21T12:19:53.145Z,17.85
2022-10-21T12:20:53.171Z,17.76
2022-10-21T12:21:53.090Z,17.83
2022-10-21T12:22:53.060Z,17.76
2022-10-21T12:23:53.292Z,17.67
2022-10-21T12:24:52.999Z,17.70
2022-10-21T12:25:53.553Z,17.68
2022-10-21T12:26:52.943Z,17.72
2022-10-21T12:27:52.931Z,17.78
2022-10-21T12:28:52.894Z,17.89
2022-10-21T12:29:52.869Z,17.92
2022-10-21T12:30:52.834Z,17.92
2022-10-21T12:31:52.940Z,17.98
2022-10-21T12:32:52.773Z,17.95
2022-10-21T12:33:52.748Z,17.89
2022-10-21T12:34:52.717Z,17.95
2022-10-21T12:35:52.690Z,17.92
2022-10-21T12:36:52.779Z,17.98
2022-10-21T12:37:52.718Z,17.94
2022-10-21T12:38:52.603Z,17.98
2022-10-21T12:39:52.576Z,18.05
2022-10-21T12:40:52.562Z,18.00
2022-10-21T12:41:52.516Z,17.94
2022-10-21T12:42:52.491Z,17.86
2022-10-21T12:43:52.521Z,17.95
2022-10-21T12:44:52.521Z,18.01
2022-10-21T12:45:52.407Z,18.04
2022-10-21T12:46:52.380Z,18.08
2022-10-21T12:47:52.350Z,17.92
2022-10-21T12:48:52.327Z,17.92
2022-10-21T12:49:52.355Z,17.89
2022-10-21T12:50:55.071Z,17.90
2022-10-21T12:51:52.236Z,17.95
2022-10-21T12:52:52.205Z,17.95
2022-10-21T12:54:52.153Z,18.00
2022-10-21T12:55:52.170Z,17.94